Time;durP1;ratioP1;P1;durP2;ratioP2;P2;SDS_P1;SDS_P2;PMS_P1;PMS_P2;Temp;Humidity;BMP_temperature;BMP_pressure;BME280_temperature;BME280_humidity;BME280_pressure;Samples;Min_cycle;Max_cycle;Signal;HPM_P1;HPM_P2
2022/07/04 00:00:26;0.00;0.00;0.62;0.00;0.00;0.62;2.80;0.90;;;29.70;25.20;;;;;;2259793;61;20786;-59
2022/07/04 00:03:11;0.00;0.00;0.62;0.00;0.00;0.62;1.63;0.90;;;29.60;25.20;;;;;;2258342;61;20772;-58
2022/07/04 00:05:57;0.00;0.00;0.62;0.00;0.00;0.62;2.07;1.13;;;29.50;25.30;;;;;;2259835;61;20364;-58
2022/07/04 00:08:42;0.00;0.00;0.62;0.00;0.00;0.62;1.60;1.10;;;29.50;25.40;;;;;;2259036;61;20430;-60
2022/07/04 00:11:27;0.00;0.00;0.62;0.00;0.00;0.62;1.60;1.00;;;29.40;25.40;;;;;;2259070;61;20369;-57
2022/07/04 00:14:12;0.00;0.00;0.62;0.00;0.00;0.62;2.77;1.13;;;29.30;25.50;;;;;;2259358;61;20369;-57
2022/07/04 00:16:57;0.00;0.00;0.62;0.00;0.00;0.62;3.30;1.43;;;29.30;25.60;;;;;;2258728;61;20368;-58
2022/07/04 00:19:42;0.00;0.00;0.62;0.00;0.00;0.62;2.13;0.90;;;29.20;25.60;;;;;;2258742;61;20427;-57
2022/07/04 00:22:28;0.00;0.00;0.62;0.00;0.00;0.62;2.67;1.20;;;29.10;25.70;;;;;;2259825;61;20361;-60
2022/07/04 00:25:13;0.00;0.00;0.62;0.00;0.00;0.62;2.10;1.40;;;29.10;25.80;;;;;;2258016;61;20369;-59
2022/07/04 00:27:58;0.00;0.00;0.62;0.00;0.00;0.62;1.60;1.13;;;29.00;25.90;;;;;;2259604;61;20423;-58
2022/07/04 00:30:43;0.00;0.00;0.62;0.00;0.00;0.62;2.13;1.10;;;29.00;25.90;;;;;;2259404;61;20778;-59
2022/07/04 00:33:27;0.00;0.00;0.62;0.00;0.00;0.62;1.40;0.80;;;28.90;25.90;;;;;;2258369;61;20849;-59
2022/07/04 00:36:12;0.00;0.00;0.62;0.00;0.00;0.62;1.40;1.00;;;28.90;26.00;;;;;;2259649;61;20455;-59
2022/07/04 00:38:58;0.00;0.00;0.62;0.00;0.00;0.62;1.53;1.00;;;28.90;26.10;;;;;;2259152;61;21177;-59
2022/07/04 00:41:43;0.00;0.00;0.62;0.00;0.00;0.62;3.10;1.30;;;28.80;26.20;;;;;;2259073;61;20956;-60
2022/07/04 00:44:30;0.00;0.00;0.62;0.00;0.00;0.62;1.80;1.23;;;28.70;26.80;;;;;;2259427;61;20380;-57
2022/07/04 00:47:15;0.00;0.00;0.62;0.00;0.00;0.62;2.07;1.10;;;28.70;26.40;;;;;;2258115;61;20623;-59
2022/07/04 00:50:00;0.00;0.00;0.62;0.00;0.00;0.62;2.10;1.10;;;28.60;26.40;;;;;;2259720;61;20458;-57
2022/07/04 00:52:45;0.00;0.00;0.62;0.00;0.00;0.62;3.37;1.30;;;28.60;26.40;;;;;;2259840;61;20583;-59
2022/07/04 00:55:33;0.00;0.00;0.62;0.00;0.00;0.62;1.47;0.90;;;28.60;26.50;;;;;;2259140;61;20885;-60
2022/07/04 00:58:21;0.00;0.00;0.62;0.00;0.00;0.62;1.53;0.80;;;28.50;26.50;;;;;;2260290;61;20418;-59
2022/07/04 01:01:05;0.00;0.00;0.62;0.00;0.00;0.62;1.77;0.90;;;28.50;26.60;;;;;;2259345;61;20997;-58
2022/07/04 01:03:50;0.00;0.00;0.62;0.00;0.00;0.62;1.40;0.97;;;28.50;27.20;;;;;;2259345;61;20877;-59
2022/07/04 01:06:36;0.00;0.00;0.62;0.00;0.00;0.62;1.93;1.07;;;28.50;26.70;;;;;;2260438;61;20449;-60
2022/07/04 01:09:21;0.00;0.00;0.62;0.00;0.00;0.62;2.37;1.07;;;28.50;26.70;;;;;;2258888;61;20381;-58
2022/07/04 01:12:08;0.00;0.00;0.62;0.00;0.00;0.62;1.67;0.93;;;28.50;26.80;;;;;;2260369;61;20353;-58
2022/07/04 01:14:54;0.00;0.00;0.62;0.00;0.00;0.62;1.80;1.00;;;28.50;26.80;;;;;;2259726;61;20369;-60
2022/07/04 01:17:39;0.00;0.00;0.62;0.00;0.00;0.62;2.40;1.40;;;28.50;26.80;;;;;;2259189;61;20368;-59
2022/07/04 01:20:25;0.00;0.00;0.62;0.00;0.00;0.62;2.40;1.47;;;28.50;26.90;;;;;;2259813;61;20388;-55
2022/07/04 01:23:10;0.00;0.00;0.62;0.00;0.00;0.62;2.23;1.30;;;28.50;26.90;;;;;;2259429;61;20471;-59
2022/07/04 01:25:56;0.00;0.00;0.62;0.00;0.00;0.62;1.67;1.20;;;28.40;27.00;;;;;;2259581;61;20345;-57
2022/07/04 01:28:41;0.00;0.00;0.62;0.00;0.00;0.62;2.10;1.40;;;28.40;27.00;;;;;;2260406;61;20377;-59
2022/07/04 01:31:25;0.00;0.00;0.62;0.00;0.00;0.62;2.63;1.27;;;28.40;27.00;;;;;;2258721;61;20457;-58
2022/07/04 01:34:10;0.00;0.00;0.62;0.00;0.00;0.62;2.27;1.33;;;28.30;27.00;;;;;;2259980;61;20413;-58
2022/07/04 01:36:58;0.00;0.00;0.62;0.00;0.00;0.62;1.50;1.10;;;28.30;27.10;;;;;;2260069;61;20376;-59
2022/07/04 01:39:43;0.00;0.00;0.62;0.00;0.00;0.62;3.00;1.20;;;28.30;27.20;;;;;;2258907;61;20446;-59
2022/07/04 01:42:28;0.00;0.00;0.62;0.00;0.00;0.62;1.90;1.30;;;28.20;27.10;;;;;;2260224;61;20364;-59
2022/07/04 01:45:13;0.00;0.00;0.62;0.00;0.00;0.62;1.60;1.20;;;28.20;27.20;;;;;;2259590;61;20494;-62
2022/07/04 01:47:58;0.00;0.00;0.62;0.00;0.00;0.62;1.60;1.10;;;28.20;27.20;;;;;;2259341;61;20388;-63
2022/07/04 01:50:43;0.00;0.00;0.62;0.00;0.00;0.62;2.03;1.23;;;28.20;27.30;;;;;;2260292;61;20385;-61
2022/07/04 01:53:29;0.00;0.00;0.62;0.00;0.00;0.62;2.00;1.30;;;28.20;27.30;;;;;;2258497;61;20447;-59
2022/07/04 01:56:14;0.00;0.00;0.62;0.00;0.00;0.62;1.87;1.40;;;28.20;27.40;;;;;;2260133;61;20369;-60
2022/07/04 01:59:01;0.00;0.00;0.62;0.00;0.00;0.62;2.27;1.43;;;28.20;27.40;;;;;;2260162;61;20369;-57
2022/07/04 02:01:46;0.00;0.00;0.62;0.00;0.00;0.62;3.03;1.33;;;28.20;27.30;;;;;;2259090;61;20369;-57
2022/07/04 02:04:31;0.00;0.00;0.62;0.00;0.00;0.62;1.77;1.10;;;28.20;27.40;;;;;;2259711;61;20361;-57
2022/07/04 02:07:16;0.00;0.00;0.62;0.00;0.00;0.62;2.50;1.27;;;28.20;27.40;;;;;;2259951;61;20404;-55
2022/07/04 02:10:03;0.00;0.00;0.62;0.00;0.00;0.62;1.60;1.20;;;28.10;27.30;;;;;;2259396;61;20791;-56
2022/07/04 02:13:06;0.00;0.00;0.62;0.00;0.00;0.62;2.53;1.50;;;28.10;27.40;;;;;;2260206;61;20389;-58
2022/07/04 02:15:51;0.00;0.00;0.62;0.00;0.00;0.62;2.10;1.27;;;28.00;27.40;;;;;;2258654;61;20437;-57
2022/07/04 02:18:35;0.00;0.00;0.62;0.00;0.00;0.62;1.60;1.10;;;27.90;27.30;;;;;;2260228;61;20503;-56
2022/07/04 02:21:20;0.00;0.00;0.62;0.00;0.00;0.62;2.10;1.13;;;27.90;27.40;;;;;;2259408;61;20840;-57
2022/07/04 02:24:06;0.00;0.00;0.62;0.00;0.00;0.62;1.90;1.53;;;27.90;27.50;;;;;;2258829;61;20376;-55
2022/07/04 02:26:52;0.00;0.00;0.62;0.00;0.00;0.62;1.90;0.90;;;27.80;27.50;;;;;;2259769;61;20400;-57
2022/07/04 02:29:37;0.00;0.00;0.62;0.00;0.00;0.62;1.60;1.10;;;27.80;27.60;;;;;;2259657;61;20439;-58
2022/07/04 02:32:22;0.00;0.00;0.62;0.00;0.00;0.62;1.73;1.10;;;27.90;27.70;;;;;;2259272;61;20920;-58
2022/07/04 02:35:08;0.00;0.00;0.62;0.00;0.00;0.62;3.33;1.60;;;27.80;27.60;;;;;;2260028;61;21221;-59
2022/07/04 02:37:53;0.00;0.00;0.62;0.00;0.00;0.62;1.87;1.30;;;27.80;27.70;;;;;;2259290;61;20369;-59
2022/07/04 02:40:39;0.00;0.00;0.62;0.00;0.00;0.62;2.47;1.20;;;27.80;27.60;;;;;;2260541;61;20389;-56
2022/07/04 02:43:25;0.00;0.00;0.62;0.00;0.00;0.62;2.83;1.23;;;27.80;27.60;;;;;;2260296;61;20530;-58
2022/07/04 02:46:10;0.00;0.00;0.62;0.00;0.00;0.62;2.40;1.33;;;27.70;27.60;;;;;;2259202;61;20515;-53
2022/07/04 02:48:55;0.00;0.00;0.62;0.00;0.00;0.62;2.33;1.30;;;27.70;27.70;;;;;;2260217;61;20361;-54
2022/07/04 02:51:40;0.00;0.00;0.62;0.00;0.00;0.62;1.80;1.30;;;27.70;27.80;;;;;;2259939;61;20364;-55
2022/07/04 02:54:25;0.00;0.00;0.62;0.00;0.00;0.62;1.70;1.20;;;27.70;27.80;;;;;;2259033;61;20392;-56
2022/07/04 02:57:10;0.00;0.00;0.62;0.00;0.00;0.62;2.27;1.20;;;27.70;27.90;;;;;;2256961;61;20786;-57
2022/07/04 02:59:56;0.00;0.00;0.62;0.00;0.00;0.62;1.70;1.23;;;27.70;27.90;;;;;;2255454;61;21033;-53
2022/07/04 03:02:41;0.00;0.00;0.62;0.00;0.00;0.62;1.80;1.40;;;27.60;27.90;;;;;;2256011;61;20370;-57
2022/07/04 03:05:28;0.00;0.00;0.62;0.00;0.00;0.62;2.37;1.40;;;27.60;27.90;;;;;;2258235;61;20373;-57
2022/07/04 03:08:13;0.00;0.00;0.62;0.00;0.00;0.62;2.40;1.23;;;27.60;28.10;;;;;;2257404;61;20833;-53
2022/07/04 03:10:58;0.00;0.00;0.62;0.00;0.00;0.62;1.80;1.23;;;27.50;28.00;;;;;;2258552;61;20385;-57
2022/07/04 03:13:43;0.00;0.00;0.62;0.00;0.00;0.62;1.70;1.23;;;27.50;28.10;;;;;;2260720;61;20403;-56
2022/07/04 03:16:29;0.00;0.00;0.62;0.00;0.00;0.62;2.53;1.20;;;27.50;28.10;;;;;;2260258;61;20369;-57
2022/07/04 03:19:14;0.00;0.00;0.62;0.00;0.00;0.62;1.60;1.00;;;27.50;28.20;;;;;;2260845;61;20392;-57
2022/07/04 03:21:59;0.00;0.00;0.62;0.00;0.00;0.62;2.10;1.10;;;27.40;28.20;;;;;;2260026;61;20449;-57
2022/07/04 03:24:44;0.00;0.00;0.62;0.00;0.00;0.62;1.63;1.10;;;27.40;28.30;;;;;;2259329;61;20888;-56
2022/07/04 03:27:29;0.00;0.00;0.62;0.00;0.00;0.62;3.23;1.70;;;27.40;28.30;;;;;;2259959;61;20404;-54
2022/07/04 03:30:14;0.00;0.00;0.62;0.00;0.00;0.62;2.27;1.60;;;27.40;28.30;;;;;;2258501;61;20805;-54
2022/07/04 03:33:00;0.00;0.00;0.62;0.00;0.00;0.62;2.63;1.50;;;27.40;28.40;;;;;;2259932;61;20392;-54
2022/07/04 03:35:46;0.00;0.00;0.62;0.00;0.00;0.62;1.90;1.33;;;27.30;28.40;;;;;;2259753;61;20504;-54
2022/07/04 03:38:31;0.00;0.00;0.62;0.00;0.00;0.62;1.73;1.10;;;27.40;28.50;;;;;;2258661;61;20989;-56
2022/07/04 03:41:16;0.00;0.00;0.62;0.00;0.00;0.62;2.97;1.50;;;27.30;28.50;;;;;;2259988;61;20373;-53
2022/07/04 03:44:00;0.00;0.00;0.62;0.00;0.00;0.62;1.67;1.23;;;27.30;28.50;;;;;;2259075;61;20357;-55
2022/07/04 03:46:45;0.00;0.00;0.62;0.00;0.00;0.62;2.00;1.27;;;27.30;28.50;;;;;;2259211;61;20368;-54
2022/07/04 03:49:31;0.00;0.00;0.62;0.00;0.00;0.62;2.17;1.30;;;27.40;28.60;;;;;;2259826;61;20381;-54
2022/07/04 03:52:16;0.00;0.00;0.62;0.00;0.00;0.62;1.80;1.27;;;27.40;28.60;;;;;;2258477;61;20804;-56
2022/07/04 03:55:01;0.00;0.00;0.62;0.00;0.00;0.62;2.43;1.40;;;27.30;28.50;;;;;;2259567;61;20415;-57
2022/07/04 03:57:45;0.00;0.00;0.62;0.00;0.00;0.62;1.60;1.20;;;27.30;28.50;;;;;;2259629;61;20365;-52
2022/07/04 04:00:31;0.00;0.00;0.62;0.00;0.00;0.62;3.20;1.67;;;27.40;28.60;;;;;;2258701;61;20446;-52
2022/07/04 04:06:21;0.00;0.00;0.62;0.00;0.00;0.62;1.83;1.30;;;27.30;28.70;;;;;;2259277;61;20388;-51
2022/07/04 04:09:06;0.00;0.00;0.62;0.00;0.00;0.62;2.83;1.60;;;27.30;28.60;;;;;;2258677;61;20393;-54
2022/07/04 04:11:51;0.00;0.00;0.62;0.00;0.00;0.62;5.10;1.30;;;27.30;28.70;;;;;;2258577;61;20880;-55
2022/07/04 04:14:37;0.00;0.00;0.62;0.00;0.00;0.62;2.50;1.50;;;27.30;28.70;;;;;;2256997;61;20487;-53
2022/07/04 04:17:21;0.00;0.00;0.62;0.00;0.00;0.62;2.20;1.80;;;27.20;28.70;;;;;;2272814;58;20412;-56
2022/07/04 04:20:11;0.00;0.00;0.62;0.00;0.00;0.62;4.80;2.17;;;27.20;28.80;;;;;;2260204;61;20392;-56
2022/07/04 04:22:57;0.00;0.00;0.62;0.00;0.00;0.62;2.83;1.90;;;27.20;28.90;;;;;;2260106;61;20551;-58
2022/07/04 04:25:42;0.00;0.00;0.62;0.00;0.00;0.62;4.60;1.97;;;27.20;29.00;;;;;;2260235;61;20433;-57
2022/07/04 04:28:26;0.00;0.00;0.62;0.00;0.00;0.62;3.43;1.73;;;27.10;29.10;;;;;;2259531;61;20365;-55
2022/07/04 04:31:11;0.00;0.00;0.62;0.00;0.00;0.62;3.37;1.97;;;27.00;29.10;;;;;;2255707;61;20772;-58
2022/07/04 04:33:56;0.00;0.00;0.62;0.00;0.00;0.62;2.30;2.10;;;27.00;29.30;;;;;;2259288;61;20388;-55
2022/07/04 04:36:41;0.00;0.00;0.62;0.00;0.00;0.62;2.43;1.90;;;26.90;29.30;;;;;;2258996;61;20762;-57
2022/07/04 04:39:28;0.00;0.00;0.62;0.00;0.00;0.62;2.90;1.87;;;26.90;29.40;;;;;;2260383;61;20404;-57
2022/07/04 04:42:13;0.00;0.00;0.62;0.00;0.00;0.62;2.23;1.67;;;26.90;29.60;;;;;;2260422;61;20503;-59
2022/07/04 04:44:58;0.00;0.00;0.62;0.00;0.00;0.62;4.00;2.17;;;26.80;29.60;;;;;;2259323;61;20848;-58
2022/07/04 04:47:43;0.00;0.00;0.62;0.00;0.00;0.62;4.13;1.70;;;26.80;29.70;;;;;;2260911;61;20414;-58
2022/07/04 04:50:28;0.00;0.00;0.62;0.00;0.00;0.62;5.10;2.27;;;26.70;29.80;;;;;;2260168;61;20933;-55
2022/07/04 04:53:13;0.00;0.00;0.62;0.00;0.00;0.62;2.83;1.40;;;26.70;30.00;;;;;;2259948;61;20385;-55
2022/07/04 04:55:59;0.00;0.00;0.62;0.00;0.00;0.62;2.50;2.17;;;26.70;30.00;;;;;;2260078;61;20410;-56
2022/07/04 04:58:44;0.00;0.00;0.62;0.00;0.00;0.62;3.50;2.20;;;26.70;30.00;;;;;;2259177;61;20369;-57
2022/07/04 05:01:29;0.00;0.00;0.62;0.00;0.00;0.62;2.80;2.50;;;26.70;30.10;;;;;;2261066;61;20846;-57
2022/07/04 05:04:14;0.00;0.00;0.62;0.00;0.00;0.62;2.20;1.90;;;26.70;30.30;;;;;;2260424;61;20369;-53
2022/07/04 05:07:00;0.00;0.00;0.62;0.00;0.00;0.62;6.83;2.37;;;26.70;30.30;;;;;;2258928;61;20372;-58
2022/07/04 05:09:45;0.00;0.00;0.62;0.00;0.00;0.62;2.50;2.10;;;26.60;30.20;;;;;;2536725;45;20842;-59
2022/07/04 05:12:31;0.00;0.00;0.62;0.00;0.00;0.62;3.63;2.60;;;26.60;30.20;;;;;;2255776;61;20501;-61
2022/07/04 05:15:16;0.00;0.00;0.62;0.00;0.00;0.62;9.23;3.50;;;26.60;30.60;;;;;;2255396;61;20504;-61
2022/07/04 05:18:01;0.00;0.00;0.62;0.00;0.00;0.62;3.07;2.67;;;26.60;30.70;;;;;;2256261;61;20393;-57
2022/07/04 05:20:46;0.00;0.00;0.62;0.00;0.00;0.62;2.30;1.80;;;26.60;30.90;;;;;;2254962;61;20393;-60
2022/07/04 05:23:31;0.00;0.00;0.62;0.00;0.00;0.62;3.07;2.00;;;26.60;31.00;;;;;;2256205;61;20362;-57
2022/07/04 05:26:16;0.00;0.00;0.62;0.00;0.00;0.62;4.20;2.63;;;26.60;31.10;;;;;;2256376;61;20370;-58
2022/07/04 05:29:02;0.00;0.00;0.62;0.00;0.00;0.62;4.40;2.83;;;26.60;31.10;;;;;;2267707;58;20510;-56
2022/07/04 05:31:46;0.00;0.00;0.62;0.00;0.00;0.62;4.47;1.93;;;26.50;31.00;;;;;;2259823;61;20881;-58
2022/07/04 05:34:32;0.00;0.00;0.62;0.00;0.00;0.62;6.50;3.13;;;26.50;31.00;;;;;;2259798;61;20435;-55
2022/07/04 05:37:17;0.00;0.00;0.62;0.00;0.00;0.62;3.50;2.37;;;26.50;31.00;;;;;;2259667;61;20897;-57
2022/07/04 05:40:02;0.00;0.00;0.62;0.00;0.00;0.62;3.27;1.97;;;26.50;31.00;;;;;;2260239;61;20380;-57
2022/07/04 05:42:47;0.00;0.00;0.62;0.00;0.00;0.62;2.90;2.27;;;26.50;31.10;;;;;;2259278;61;20443;-55
2022/07/04 05:45:33;0.00;0.00;0.62;0.00;0.00;0.62;5.40;3.10;;;26.50;31.00;;;;;;2259658;61;20795;-56
2022/07/04 05:48:18;0.00;0.00;0.62;0.00;0.00;0.62;3.00;2.40;;;26.50;31.00;;;;;;2260492;61;20384;-58
2022/07/04 05:51:03;0.00;0.00;0.62;0.00;0.00;0.62;4.43;3.20;;;26.50;31.00;;;;;;2258924;61;20447;-56
2022/07/04 05:53:48;0.00;0.00;0.62;0.00;0.00;0.62;3.60;2.50;;;26.60;31.10;;;;;;2259418;61;20450;-59
2022/07/04 05:56:33;0.00;0.00;0.62;0.00;0.00;0.62;3.30;2.60;;;26.50;31.00;;;;;;2260310;61;20445;-55
2022/07/04 05:59:18;0.00;0.00;0.62;0.00;0.00;0.62;3.30;3.00;;;26.50;31.00;;;;;;2260300;61;20439;-55
2022/07/04 06:02:05;0.00;0.00;0.62;0.00;0.00;0.62;4.10;2.20;;;26.50;31.10;;;;;;2261279;61;20960;-57
2022/07/04 06:04:49;0.00;0.00;0.62;0.00;0.00;0.62;5.33;2.00;;;26.50;31.00;;;;;;2260182;61;20403;-57
2022/07/04 06:07:34;0.00;0.00;0.62;0.00;0.00;0.62;4.33;2.83;;;26.50;31.00;;;;;;2260692;61;20427;-56
2022/07/04 06:10:20;0.00;0.00;0.62;0.00;0.00;0.62;4.63;3.07;;;26.50;31.00;;;;;;2260489;61;20407;-54
2022/07/04 06:13:05;0.00;0.00;0.62;0.00;0.00;0.62;3.00;1.87;;;26.50;31.10;;;;;;2259304;61;20395;-58
2022/07/04 06:15:50;0.00;0.00;0.62;0.00;0.00;0.62;4.70;2.07;;;26.50;31.00;;;;;;2259376;61;20443;-57
2022/07/04 06:18:37;0.00;0.00;0.62;0.00;0.00;0.62;3.40;2.30;;;26.50;31.00;;;;;;2259890;61;20383;-59
2022/07/04 06:21:21;0.00;0.00;0.62;0.00;0.00;0.62;3.20;2.50;;;26.50;31.00;;;;;;2259543;61;20357;-59
2022/07/04 06:24:06;0.00;0.00;0.62;0.00;0.00;0.62;5.23;2.90;;;26.50;31.00;;;;;;2259586;61;20719;-56
2022/07/04 06:26:51;0.00;0.00;0.62;0.00;0.00;0.62;3.17;1.90;;;26.50;31.00;;;;;;2259591;61;20368;-61
2022/07/04 06:29:36;0.00;0.00;0.62;0.00;0.00;0.62;2.90;1.70;;;26.60;31.10;;;;;;2259227;61;20444;-59
2022/07/04 06:32:20;0.00;0.00;0.62;0.00;0.00;0.62;2.00;1.37;;;26.60;31.10;;;;;;2260109;61;20400;-57
2022/07/04 06:38:14;0.00;0.00;0.62;0.00;0.00;0.62;3.70;2.40;;;26.60;31.10;;;;;;2259649;61;20364;-55
2022/07/04 06:40:59;0.00;0.00;0.62;0.00;0.00;0.62;3.20;2.90;;;26.70;31.20;;;;;;2259705;61;20465;-60
2022/07/04 06:43:44;0.00;0.00;0.62;0.00;0.00;0.62;4.60;2.67;;;26.70;31.20;;;;;;2259497;61;20407;-60
2022/07/04 06:46:29;0.00;0.00;0.62;0.00;0.00;0.62;2.60;2.10;;;26.70;31.20;;;;;;2260142;61;20396;-56
2022/07/04 06:49:14;0.00;0.00;0.62;0.00;0.00;0.62;3.20;2.10;;;26.70;31.20;;;;;;2259548;61;20422;-57
2022/07/04 06:52:01;0.00;0.00;0.62;0.00;0.00;0.62;3.40;1.83;;;26.70;31.20;;;;;;2259622;61;20447;-62
2022/07/04 06:54:46;0.00;0.00;0.62;0.00;0.00;0.62;3.93;1.50;;;26.70;31.20;;;;;;2259834;61;20388;-58
2022/07/04 06:57:31;0.00;0.00;0.62;0.00;0.00;0.62;2.60;1.50;;;26.70;31.80;;;;;;2259740;61;20885;-60
2022/07/04 07:00:16;0.00;0.00;0.62;0.00;0.00;0.62;2.70;1.47;;;26.80;31.20;;;;;;2259758;61;20388;-59
2022/07/04 07:03:03;0.00;0.00;0.62;0.00;0.00;0.62;1.80;1.60;;;26.80;31.20;;;;;;2259685;61;20822;-58
2022/07/04 07:05:47;0.00;0.00;0.62;0.00;0.00;0.62;1.70;1.40;;;26.80;31.00;;;;;;2259664;61;20461;-60
2022/07/04 07:08:34;0.00;0.00;0.62;0.00;0.00;0.62;2.93;1.90;;;26.80;30.70;;;;;;2259109;61;20438;-60
2022/07/04 07:11:19;0.00;0.00;0.62;0.00;0.00;0.62;3.03;1.80;;;26.90;30.50;;;;;;2259488;61;20415;-59
2022/07/04 07:14:05;0.00;0.00;0.62;0.00;0.00;0.62;2.80;1.60;;;26.90;31.00;;;;;;2258849;61;20439;-58
2022/07/04 07:16:49;0.00;0.00;0.62;0.00;0.00;0.62;3.47;1.63;;;26.90;30.30;;;;;;2259554;61;20369;-56
2022/07/04 07:19:34;0.00;0.00;0.62;0.00;0.00;0.62;2.30;1.50;;;26.90;30.20;;;;;;2258541;61;20431;-59
2022/07/04 07:22:19;0.00;0.00;0.62;0.00;0.00;0.62;3.73;1.60;;;26.90;30.10;;;;;;2259263;61;20413;-56
2022/07/04 07:25:07;0.00;0.00;0.62;0.00;0.00;0.62;2.50;1.70;;;27.00;30.10;;;;;;2259036;61;20427;-57
2022/07/04 07:27:52;0.00;0.00;0.62;0.00;0.00;0.62;1.83;1.33;;;27.00;30.00;;;;;;2259107;61;20453;-57
2022/07/04 07:30:37;0.00;0.00;0.62;0.00;0.00;0.62;3.27;1.70;;;27.00;30.00;;;;;;2259176;61;20385;-57
2022/07/04 07:33:22;0.00;0.00;0.62;0.00;0.00;0.62;3.90;1.93;;;27.00;29.90;;;;;;2259853;61;20394;-57
2022/07/04 07:36:08;0.00;0.00;0.62;0.00;0.00;0.62;4.30;1.60;;;27.00;29.80;;;;;;2259231;61;21273;-59
2022/07/04 07:38:55;0.00;0.00;0.62;0.00;0.00;0.62;2.43;1.80;;;27.00;29.80;;;;;;2259969;61;20456;-52
2022/07/04 07:41:42;0.00;0.00;0.62;0.00;0.00;0.62;3.33;1.83;;;27.00;29.80;;;;;;2258895;61;20415;-58
2022/07/04 07:44:27;0.00;0.00;0.62;0.00;0.00;0.62;5.30;1.90;;;27.00;29.80;;;;;;2260648;61;20377;-60
2022/07/04 07:47:13;0.00;0.00;0.62;0.00;0.00;0.62;4.10;1.73;;;27.00;29.80;;;;;;2260510;61;20361;-59
2022/07/04 07:49:57;0.00;0.00;0.62;0.00;0.00;0.62;3.53;1.87;;;27.00;29.70;;;;;;2257813;48;20413;-61
2022/07/04 07:52:42;0.00;0.00;0.62;0.00;0.00;0.62;2.90;1.80;;;27.00;29.50;;;;;;2255828;61;20416;-62
2022/07/04 07:55:27;0.00;0.00;0.62;0.00;0.00;0.62;2.87;1.50;;;27.00;29.50;;;;;;2258131;61;20389;-59
2022/07/04 07:58:17;0.00;0.00;0.62;0.00;0.00;0.62;1.90;1.50;;;27.00;29.40;;;;;;2256135;61;20358;-58
2022/07/04 08:01:02;0.00;0.00;0.62;0.00;0.00;0.62;2.90;1.60;;;27.00;29.30;;;;;;2256088;61;20394;-57
2022/07/04 08:06:51;0.00;0.00;0.62;0.00;0.00;0.62;2.20;1.50;;;27.00;29.00;;;;;;2256508;61;20488;-58
2022/07/04 08:09:36;0.00;0.00;0.62;0.00;0.00;0.62;3.27;1.40;;;27.00;28.80;;;;;;2256189;61;20941;-59
2022/07/04 08:12:21;0.00;0.00;0.62;0.00;0.00;0.62;3.27;1.43;;;26.90;28.70;;;;;;2255125;61;20416;-60
2022/07/04 08:15:09;0.00;0.00;0.62;0.00;0.00;0.62;2.13;1.53;;;26.90;28.50;;;;;;2256309;61;20393;-59
2022/07/04 08:17:54;0.00;0.00;0.62;0.00;0.00;0.62;2.10;1.23;;;26.80;28.20;;;;;;2255619;61;20363;-56
2022/07/04 08:20:38;0.00;0.00;0.62;0.00;0.00;0.62;1.80;1.37;;;26.80;28.20;;;;;;2255293;61;20445;-57
2022/07/04 08:23:23;0.00;0.00;0.62;0.00;0.00;0.62;1.87;1.47;;;26.70;28.20;;;;;;2255648;61;20432;-60
2022/07/04 08:26:08;0.00;0.00;0.62;0.00;0.00;0.62;2.00;1.10;;;26.70;27.90;;;;;;2254745;61;21127;-60
2022/07/04 08:28:57;0.00;0.00;0.62;0.00;0.00;0.62;2.27;1.13;;;26.60;27.80;;;;;;2256235;61;20377;-59
2022/07/04 08:31:43;0.00;0.00;0.62;0.00;0.00;0.62;2.83;1.20;;;26.60;27.50;;;;;;2255680;61;20357;-58
2022/07/04 08:34:28;0.00;0.00;0.62;0.00;0.00;0.62;1.47;1.20;;;26.50;27.60;;;;;;2254575;61;21258;-58
2022/07/04 08:37:13;0.00;0.00;0.62;0.00;0.00;0.62;2.33;1.57;;;26.40;27.70;;;;;;2256232;61;20838;-57
2022/07/04 08:39:58;0.00;0.00;0.62;0.00;0.00;0.62;5.30;1.27;;;26.40;27.70;;;;;;2255349;61;20528;-60
2022/07/04 08:42:43;0.00;0.00;0.62;0.00;0.00;0.62;2.20;1.40;;;26.40;27.80;;;;;;2254825;61;20877;-57
2022/07/04 08:45:30;0.00;0.00;0.62;0.00;0.00;0.62;2.40;1.30;;;26.30;27.70;;;;;;2256012;61;20485;-56
2022/07/04 08:48:19;0.00;0.00;0.62;0.00;0.00;0.62;2.37;1.30;;;26.20;27.40;;;;;;2254804;61;20774;-59
2022/07/04 08:51:16;0.00;0.00;0.62;0.00;0.00;0.62;2.00;1.17;;;26.20;27.50;;;;;;2255820;61;20427;-57
2022/07/04 08:58:25;0.00;0.00;0.62;0.00;0.00;0.62;1.40;0.90;;;26.20;27.60;;;;;;2254902;61;20479;-59
2022/07/04 09:00:11;0.00;0.00;0.62;0.00;0.00;0.62;2.80;1.23;;;26.20;27.80;;;;;;2255786;61;20407;-56
2022/07/04 09:02:58;0.00;0.00;0.62;0.00;0.00;0.62;2.33;0.93;;;26.20;27.70;;;;;;2255032;61;20362;-58
2022/07/04 09:05:45;0.00;0.00;0.62;0.00;0.00;0.62;3.10;1.20;;;26.20;27.80;;;;;;2256093;61;20362;-58
2022/07/04 09:08:30;0.00;0.00;0.62;0.00;0.00;0.62;2.60;1.23;;;26.20;27.70;;;;;;2255686;61;20385;-58
2022/07/04 09:11:15;0.00;0.00;0.62;0.00;0.00;0.62;2.40;1.07;;;26.10;27.40;;;;;;2254727;61;20408;-59
2022/07/04 09:13:59;0.00;0.00;0.62;0.00;0.00;0.62;1.60;1.00;;;26.10;27.20;;;;;;2256188;61;20377;-59
2022/07/04 09:16:48;0.00;0.00;0.62;0.00;0.00;0.62;1.50;1.10;;;26.10;27.10;;;;;;2255673;61;20362;-58
2022/07/04 09:19:34;0.00;0.00;0.62;0.00;0.00;0.62;1.70;0.97;;;26.10;27.20;;;;;;2256011;61;20803;-59
2022/07/04 09:22:20;0.00;0.00;0.62;0.00;0.00;0.62;1.73;1.10;;;26.10;27.30;;;;;;2256557;61;20362;-60
2022/07/04 09:25:06;0.00;0.00;0.62;0.00;0.00;0.62;1.60;1.10;;;26.10;27.30;;;;;;2256019;61;20412;-61
2022/07/04 09:27:54;0.00;0.00;0.62;0.00;0.00;0.62;1.77;1.10;;;26.20;27.30;;;;;;2256861;61;20772;-60
2022/07/04 09:30:48;0.00;0.00;0.62;0.00;0.00;0.62;2.00;1.10;;;26.20;27.20;;;;;;2255644;61;20435;-59
2022/07/04 09:33:45;0.00;0.00;0.62;0.00;0.00;0.62;1.80;1.20;;;26.10;27.20;;;;;;2255671;61;20891;-59
2022/07/04 09:36:33;0.00;0.00;0.62;0.00;0.00;0.62;3.67;1.27;;;26.10;26.90;;;;;;2256546;61;21025;-61
2022/07/04 09:39:21;0.00;0.00;0.62;0.00;0.00;0.62;1.90;0.90;;;26.20;26.90;;;;;;2255438;61;20409;-59
2022/07/04 09:42:06;0.00;0.00;0.62;0.00;0.00;0.62;3.10;1.37;;;26.20;27.00;;;;;;2255938;61;20369;-59
2022/07/04 09:44:51;0.00;0.00;0.62;0.00;0.00;0.62;3.00;1.13;;;26.10;27.00;;;;;;2256740;61;20365;-61
2022/07/04 09:47:37;0.00;0.00;0.62;0.00;0.00;0.62;1.80;1.03;;;26.20;27.00;;;;;;2255160;61;20448;-60
2022/07/04 09:50:25;0.00;0.00;0.62;0.00;0.00;0.62;1.80;1.00;;;26.20;27.00;;;;;;2255996;61;20397;-60
2022/07/04 09:53:09;0.00;0.00;0.62;0.00;0.00;0.62;2.90;1.43;;;26.20;27.10;;;;;;2256211;61;20370;-57
2022/07/04 09:55:56;0.00;0.00;0.62;0.00;0.00;0.62;2.00;0.87;;;26.20;26.90;;;;;;2255365;61;20415;-57
2022/07/04 09:58:56;0.00;0.00;0.62;0.00;0.00;0.62;3.83;1.37;;;26.20;27.00;;;;;;2256568;61;20385;-57
2022/07/04 10:01:41;0.00;0.00;0.62;0.00;0.00;0.62;2.23;1.33;;;26.20;27.00;;;;;;2255861;61;20920;-58
2022/07/04 10:04:46;0.00;0.00;0.62;0.00;0.00;0.62;2.00;1.17;;;26.20;26.70;;;;;;2255842;61;20362;-59
2022/07/04 10:07:35;0.00;0.00;0.62;0.00;0.00;0.62;2.67;1.10;;;26.20;26.50;;;;;;2256246;61;20365;-58
2022/07/04 10:10:27;0.00;0.00;0.62;0.00;0.00;0.62;2.47;1.13;;;26.20;26.50;;;;;;2255199;61;20425;-60
2022/07/04 10:13:14;0.00;0.00;0.62;0.00;0.00;0.62;2.23;1.30;;;26.20;26.60;;;;;;2256585;61;20386;-59
2022/07/04 10:15:59;0.00;0.00;0.62;0.00;0.00;0.62;2.00;1.10;;;26.20;26.70;;;;;;2255862;61;20390;-59
2022/07/04 10:18:45;0.00;0.00;0.62;0.00;0.00;0.62;1.70;1.30;;;26.20;26.80;;;;;;2255415;61;20365;-57
2022/07/04 10:21:32;0.00;0.00;0.62;0.00;0.00;0.62;2.50;1.40;;;26.20;26.80;;;;;;2256509;61;20382;-58
2022/07/04 10:24:17;0.00;0.00;0.62;0.00;0.00;0.62;1.83;1.40;;;26.20;26.80;;;;;;2255111;61;20408;-58
2022/07/04 10:27:02;0.00;0.00;0.62;0.00;0.00;0.62;2.37;1.10;;;26.20;26.80;;;;;;2255831;61;20361;-58
2022/07/04 10:29:49;0.00;0.00;0.62;0.00;0.00;0.62;3.40;1.33;;;26.20;26.90;;;;;;2256341;61;20386;-58
2022/07/04 10:32:36;0.00;0.00;0.62;0.00;0.00;0.62;3.60;1.43;;;26.30;26.80;;;;;;2255161;61;20438;-58
2022/07/04 10:35:53;0.00;0.00;0.62;0.00;0.00;0.62;3.10;1.73;;;26.30;26.70;;;;;;2256298;61;20417;-58
2022/07/04 10:38:48;0.00;0.00;0.62;0.00;0.00;0.62;2.57;1.00;;;26.30;26.70;;;;;;2255637;61;20370;-56
2022/07/04 10:41:33;0.00;0.00;0.62;0.00;0.00;0.62;1.50;1.00;;;26.30;26.50;;;;;;2255925;61;20354;-58
2022/07/04 10:44:23;0.00;0.00;0.62;0.00;0.00;0.62;2.30;1.30;;;26.40;26.50;;;;;;2256420;61;20378;-58
2022/07/04 10:47:23;0.00;0.00;0.62;0.00;0.00;0.62;3.00;0.93;;;26.40;26.40;;;;;;2255286;61;20381;-59
2022/07/04 10:50:08;0.00;0.00;0.62;0.00;0.00;0.62;2.20;1.20;;;26.40;26.40;;;;;;2256547;61;20996;-57
2022/07/04 10:53:09;0.00;0.00;0.62;0.00;0.00;0.62;1.80;1.10;;;26.50;26.50;;;;;;2255957;61;20420;-58
2022/07/04 10:56:02;0.00;0.00;0.62;0.00;0.00;0.62;4.13;1.07;;;26.40;26.40;;;;;;2255043;61;20913;-58
2022/07/04 10:58:50;0.00;0.00;0.62;0.00;0.00;0.62;2.13;1.00;;;26.50;26.30;;;;;;2255698;61;20509;-60
2022/07/04 11:01:35;0.00;0.00;0.62;0.00;0.00;0.62;2.43;1.10;;;26.50;26.30;;;;;;2254186;61;20452;-60
2022/07/04 11:04:48;0.00;0.00;0.62;0.00;0.00;0.62;2.07;1.13;;;26.50;26.30;;;;;;2255677;61;20446;-61
2022/07/04 11:07:57;0.00;0.00;0.62;0.00;0.00;0.62;1.50;0.90;;;26.50;26.30;;;;;;2255715;61;20821;-60